sensor_id;sensor_type;location;lat;lon;timestamp;pressure;altitude;pressure_sealevel;temperature;humidity
33153;BME280;19509;43.862;26.176;2022-10-16T00:00:31;101689.75;;;3.68;78.85
33153;BME280;19509;43.862;26.176;2022-10-16T00:02:57;101692.53;;;3.86;78.66
33153;BME280;19509;43.862;26.176;2022-10-16T00:05:23;101692.72;;;3.94;77.89
33153;BME280;19509;43.862;26.176;2022-10-16T00:07:48;101693.66;;;3.93;78.41
33153;BME280;19509;43.862;26.176;2022-10-16T00:10:14;101696.22;;;3.95;79.09
33153;BME280;19509;43.862;26.176;2022-10-16T00:12:39;101694.94;;;3.89;79.25
33153;BME280;19509;43.862;26.176;2022-10-16T00:15:05;101692.16;;;3.91;78.72
33153;BME280;19509;43.862;26.176;2022-10-16T00:17:31;101694.66;;;3.92;78.32
33153;BME280;19509;43.862;26.176;2022-10-16T00:19:57;101698.31;;;3.91;78.26
33153;BME280;19509;43.862;26.176;2022-10-16T00:22:23;101706.56;;;3.88;78.32
33153;BME280;19509;43.862;26.176;2022-10-16T00:24:48;101700.97;;;3.82;78.76
33153;BME280;19509;43.862;26.176;2022-10-16T00:27:14;101708.66;;;3.75;78.69
33153;BME280;19509;43.862;26.176;2022-10-16T00:29:39;101717.63;;;3.74;78.88
33153;BME280;19509;43.862;26.176;2022-10-16T00:32:05;101709.38;;;3.67;79.01
33153;BME280;19509;43.862;26.176;2022-10-16T00:34:30;101710.22;;;3.77;78.52
33153;BME280;19509;43.862;26.176;2022-10-16T00:36:56;101713.84;;;3.76;78.34
33153;BME280;19509;43.862;26.176;2022-10-16T00:39:21;101705.84;;;3.67;78.35
33153;BME280;19509;43.862;26.176;2022-10-16T00:41:47;101723.34;;;3.60;78.72
33153;BME280;19509;43.862;26.176;2022-10-16T00:47:13;101715.38;;;3.69;78.91
33153;BME280;19509;43.862;26.176;2022-10-16T00:49:41;101714.81;;;3.66;78.60
33153;BME280;19509;43.862;26.176;2022-10-16T00:52:06;101716.63;;;3.65;78.96
33153;BME280;19509;43.862;26.176;2022-10-16T00:54:33;101719.75;;;3.70;78.44
33153;BME280;19509;43.862;26.176;2022-10-16T00:57:05;101717.63;;;3.64;77.98
33153;BME280;19509;43.862;26.176;2022-10-16T00:59:36;101727.41;;;3.54;77.27
33153;BME280;19509;43.862;26.176;2022-10-16T01:02:04;101729.03;;;3.45;77.62
33153;BME280;19509;43.862;26.176;2022-10-16T01:04:37;101718.78;;;3.31;77.73
33153;BME280;19509;43.862;26.176;2022-10-16T01:07:15;101721.97;;;3.25;77.88
33153;BME280;19509;43.862;26.176;2022-10-16T01:09:55;101715.53;;;3.18;77.65
33153;BME280;19509;43.862;26.176;2022-10-16T01:12:40;101730.56;;;2.98;77.31
33153;BME280;19509;43.862;26.176;2022-10-16T01:15:23;101733.47;;;2.95;77.55
33153;BME280;19509;43.862;26.176;2022-10-16T01:18:08;101726.84;;;3.10;78.29
33153;BME280;19509;43.862;26.176;2022-10-16T01:20:42;101739.03;;;3.22;78.64
33153;BME280;19509;43.862;26.176;2022-10-16T01:28:45;101726.84;;;3.10;78.26
33153;BME280;19509;43.862;26.176;2022-10-16T01:31:18;101728.41;;;3.13;78.49
33153;BME280;19509;43.862;26.176;2022-10-16T01:33:48;101726.00;;;3.19;78.96
33153;BME280;19509;43.862;26.176;2022-10-16T01:36:24;101725.84;;;3.11;79.05
33153;BME280;19509;43.862;26.176;2022-10-16T01:38:52;101723.97;;;3.23;79.37
33153;BME280;19509;43.862;26.176;2022-10-16T01:41:26;101725.47;;;3.25;78.99
33153;BME280;19509;43.862;26.176;2022-10-16T01:44:01;101725.19;;;3.19;78.39
33153;BME280;19509;43.862;26.176;2022-10-16T01:46:30;101723.47;;;3.08;78.23
33153;BME280;19509;43.862;26.176;2022-10-16T01:48:57;101734.59;;;2.92;78.13
33153;BME280;19509;43.862;26.176;2022-10-16T01:51:24;101722.53;;;2.88;78.67
33153;BME280;19509;43.862;26.176;2022-10-16T01:53:54;101730.97;;;2.93;78.68
33153;BME280;19509;43.862;26.176;2022-10-16T01:56:21;101738.16;;;2.81;78.47
33153;BME280;19509;43.862;26.176;2022-10-16T01:59:11;101738.03;;;2.83;77.69
33153;BME280;19509;43.862;26.176;2022-10-16T02:01:42;101736.00;;;2.66;78.31
33153;BME280;19509;43.862;26.176;2022-10-16T02:04:14;101743.16;;;2.75;78.24
33153;BME280;19509;43.862;26.176;2022-10-16T02:06:40;101744.59;;;2.79;79.27
33153;BME280;19509;43.862;26.176;2022-10-16T02:09:06;101735.81;;;2.88;79.66
33153;BME280;19509;43.862;26.176;2022-10-16T02:11:31;101747.03;;;2.92;79.31
33153;BME280;19509;43.862;26.176;2022-10-16T02:14:06;101745.16;;;3.03;79.19
33153;BME280;19509;43.862;26.176;2022-10-16T02:16:38;101749.31;;;2.96;78.90
33153;BME280;19509;43.862;26.176;2022-10-16T02:19:05;101747.59;;;2.86;79.06
33153;BME280;19509;43.862;26.176;2022-10-16T02:21:49;101745.88;;;2.84;79.46
33153;BME280;19509;43.862;26.176;2022-10-16T02:24:30;101750.16;;;2.97;79.64
33153;BME280;19509;43.862;26.176;2022-10-16T02:27:05;101753.66;;;2.97;79.71
33153;BME280;19509;43.862;26.176;2022-10-16T02:29:40;101748.28;;;2.88;78.60
33153;BME280;19509;43.862;26.176;2022-10-16T02:32:11;101752.50;;;2.69;79.57
33153;BME280;19509;43.862;26.176;2022-10-16T02:34:39;101748.47;;;2.75;78.96
33153;BME280;19509;43.862;26.176;2022-10-16T02:37:05;101749.84;;;2.69;79.34
33153;BME280;19509;43.862;26.176;2022-10-16T02:39:32;101755.53;;;2.65;79.34
33153;BME280;19509;43.862;26.176;2022-10-16T02:41:58;101757.69;;;2.71;79.41
33153;BME280;19509;43.862;26.176;2022-10-16T02:44:24;101761.72;;;2.65;79.02
33153;BME280;19509;43.862;26.176;2022-10-16T02:46:49;101764.31;;;2.55;78.89
33153;BME280;19509;43.862;26.176;2022-10-16T02:49:15;101768.84;;;2.65;79.36
33153;BME280;19509;43.862;26.176;2022-10-16T02:51:40;101763.47;;;2.55;78.42
33153;BME280;19509;43.862;26.176;2022-10-16T02:54:06;101762.41;;;2.46;78.17
33153;BME280;19509;43.862;26.176;2022-10-16T02:56:32;101758.34;;;2.42;78.15
33153;BME280;19509;43.862;26.176;2022-10-16T02:58:57;101765.00;;;2.36;79.23
33153;BME280;19509;43.862;26.176;2022-10-16T03:01:23;101768.00;;;2.43;79.78
33153;BME280;19509;43.862;26.176;2022-10-16T03:03:49;101770.91;;;2.61;79.32
33153;BME280;19509;43.862;26.176;2022-10-16T03:06:14;101772.78;;;2.70;78.80
33153;BME280;19509;43.862;26.176;2022-10-16T03:08:40;101777.28;;;2.70;79.00
33153;BME280;19509;43.862;26.176;2022-10-16T03:11:05;101774.44;;;2.62;79.56
33153;BME280;19509;43.862;26.176;2022-10-16T03:13:31;101781.59;;;2.71;80.34
33153;BME280;19509;43.862;26.176;2022-10-16T03:15:56;101775.34;;;2.72;80.93
33153;BME280;19509;43.862;26.176;2022-10-16T03:18:22;101782.50;;;2.81;80.14
33153;BME280;19509;43.862;26.176;2022-10-16T03:20:47;101784.81;;;2.86;79.32
33153;BME280;19509;43.862;26.176;2022-10-16T03:23:13;101789.47;;;2.93;79.38
33153;BME280;19509;43.862;26.176;2022-10-16T03:25:39;101793.16;;;2.81;79.46
33153;BME280;19509;43.862;26.176;2022-10-16T03:28:04;101790.16;;;2.74;79.00
33153;BME280;19509;43.862;26.176;2022-10-16T03:30:30;101785.50;;;2.67;78.90
33153;BME280;19509;43.862;26.176;2022-10-16T03:32:55;101788.50;;;2.73;78.14
33153;BME280;19509;43.862;26.176;2022-10-16T03:35:21;101789.00;;;2.67;79.16
33153;BME280;19509;43.862;26.176;2022-10-16T03:37:47;101793.16;;;2.60;78.99
33153;BME280;19509;43.862;26.176;2022-10-16T03:40:13;101795.22;;;2.56;78.70
33153;BME280;19509;43.862;26.176;2022-10-16T03:42:39;101801.81;;;2.41;80.00
33153;BME280;19509;43.862;26.176;2022-10-16T03:45:05;101796.19;;;2.55;79.44
33153;BME280;19509;43.862;26.176;2022-10-16T03:47:30;101799.56;;;2.57;79.43
33153;BME280;19509;43.862;26.176;2022-10-16T03:49:58;101797.81;;;2.47;79.33
33153;BME280;19509;43.862;26.176;2022-10-16T03:52:23;101796.25;;;2.44;79.82
33153;BME280;19509;43.862;26.176;2022-10-16T03:54:49;101799.78;;;2.33;80.21
33153;BME280;19509;43.862;26.176;2022-10-16T03:57:14;101793.97;;;2.40;79.55
33153;BME280;19509;43.862;26.176;2022-10-16T03:59:40;101791.13;;;2.31;79.34
33153;BME280;19509;43.862;26.176;2022-10-16T04:02:05;101792.25;;;2.18;78.87
33153;BME280;19509;43.862;26.176;2022-10-16T04:04:31;101787.09;;;2.05;79.03
33153;BME280;19509;43.862;26.176;2022-10-16T04:06:56;101795.94;;;1.94;79.06
33153;BME280;19509;43.862;26.176;2022-10-16T04:09:22;101787.16;;;1.82;78.80
33153;BME280;19509;43.862;26.176;2022-10-16T04:11:47;101781.38;;;1.77;79.28
33153;BME280;19509;43.862;26.176;2022-10-16T04:14:13;101794.13;;;1.83;79.62
33153;BME280;19509;43.862;26.176;2022-10-16T04:16:38;101795.00;;;1.84;79.75
33153;BME280;19509;43.862;26.176;2022-10-16T04:19:04;101792.56;;;1.92;78.84
33153;BME280;19509;43.862;26.176;2022-10-16T04:21:29;101786.38;;;2.03;78.52
33153;BME280;19509;43.862;26.176;2022-10-16T04:23:55;101798.59;;;1.94;78.60
33153;BME280;19509;43.862;26.176;2022-10-16T04:26:20;101790.41;;;1.97;78.58
33153;BME280;19509;43.862;26.176;2022-10-16T04:28:45;101788.44;;;1.99;78.71
33153;BME280;19509;43.862;26.176;2022-10-16T04:31:11;101790.41;;;1.97;78.99
33153;BME280;19509;43.862;26.176;2022-10-16T04:33:36;101791.81;;;2.01;79.36
33153;BME280;19509;43.862;26.176;2022-10-16T04:36:03;101798.44;;;2.07;79.39
33153;BME280;19509;43.862;26.176;2022-10-16T04:38:28;101800.50;;;2.03;78.78
33153;BME280;19509;43.862;26.176;2022-10-16T04:40:54;101807.31;;;1.85;79.11
33153;BME280;19509;43.862;26.176;2022-10-16T04:43:20;101819.94;;;1.93;79.44
33153;BME280;19509;43.862;26.176;2022-10-16T04:45:46;101822.94;;;1.99;79.41
33153;BME280;19509;43.862;26.176;2022-10-16T04:48:11;101832.59;;;2.11;79.14
33153;BME280;19509;43.862;26.176;2022-10-16T04:50:37;101833.47;;;2.01;79.33
33153;BME280;19509;43.862;26.176;2022-10-16T04:53:03;101825.84;;;1.96;78.85
33153;BME280;19509;43.862;26.176;2022-10-16T04:55:29;101832.13;;;1.95;79.38
33153;BME280;19509;43.862;26.176;2022-10-16T04:57:54;101836.13;;;2.01;78.89
33153;BME280;19509;43.862;26.176;2022-10-16T05:00:20;101835.16;;;2.02;78.72
33153;BME280;19509;43.862;26.176;2022-10-16T05:02:47;101836.81;;;2.14;78.37
33153;BME280;19509;43.862;26.176;2022-10-16T05:05:12;101847.50;;;2.24;78.35
33153;BME280;19509;43.862;26.176;2022-10-16T05:07:39;101846.66;;;2.23;79.06
33153;BME280;19509;43.862;26.176;2022-10-16T05:10:05;101848.09;;;2.39;78.25
33153;BME280;19509;43.862;26.176;2022-10-16T05:12:30;101846.28;;;2.39;77.91
33153;BME280;19509;43.862;26.176;2022-10-16T05:14:56;101857.09;;;2.47;77.91
33153;BME280;19509;43.862;26.176;2022-10-16T05:17:24;101855.94;;;2.61;77.31
33153;BME280;19509;43.862;26.176;2022-10-16T05:19:51;101864.47;;;2.55;77.41
33153;BME280;19509;43.862;26.176;2022-10-16T05:22:17;101868.69;;;2.78;77.30
33153;BME280;19509;43.862;26.176;2022-10-16T05:24:42;101880.44;;;2.97;76.25
33153;BME280;19509;43.862;26.176;2022-10-16T05:27:08;101888.34;;;3.08;76.51
33153;BME280;19509;43.862;26.176;2022-10-16T05:29:33;101896.91;;;3.12;77.04
33153;BME280;19509;43.862;26.176;2022-10-16T05:32:00;101899.38;;;3.24;76.80
33153;BME280;19509;43.862;26.176;2022-10-16T05:34:25;101900.44;;;3.33;76.79
33153;BME280;19509;43.862;26.176;2022-10-16T05:36:51;101905.09;;;3.41;77.40
33153;BME280;19509;43.862;26.176;2022-10-16T05:39:17;101907.66;;;3.52;76.96
33153;BME280;19509;43.862;26.176;2022-10-16T05:41:43;101902.25;;;3.63;76.51
33153;BME280;19509;43.862;26.176;2022-10-16T05:44:08;101912.44;;;3.79;76.78
33153;BME280;19509;43.862;26.176;2022-10-16T05:46:34;101907.19;;;3.98;76.93
33153;BME280;19509;43.862;26.176;2022-10-16T05:48:59;101914.06;;;4.11;77.40
33153;BME280;19509;43.862;26.176;2022-10-16T05:51:25;101915.94;;;4.20;77.97
33153;BME280;19509;43.862;26.176;2022-10-16T05:53:52;101919.97;;;4.14;78.39
33153;BME280;19509;43.862;26.176;2022-10-16T05:56:18;101929.72;;;4.25;78.16
33153;BME280;19509;43.862;26.176;2022-10-16T05:58:43;101919.34;;;4.32;77.56
33153;BME280;19509;43.862;26.176;2022-10-16T06:01:14;101926.09;;;4.55;77.12
33153;BME280;19509;43.862;26.176;2022-10-16T06:03:40;101927.66;;;4.67;76.60
33153;BME280;19509;43.862;26.176;2022-10-16T06:06:18;101923.88;;;4.99;78.34
33153;BME280;19509;43.862;26.176;2022-10-16T06:08:44;101926.81;;;5.15;77.24
33153;BME280;19509;43.862;26.176;2022-10-16T06:11:15;101926.97;;;5.14;77.73
33153;BME280;19509;43.862;26.176;2022-10-16T06:13:41;101937.94;;;5.30;78.04
33153;BME280;19509;43.862;26.176;2022-10-16T06:16:09;101942.38;;;5.39;78.68
33153;BME280;19509;43.862;26.176;2022-10-16T06:18:34;101939.13;;;5.55;79.03
33153;BME280;19509;43.862;26.176;2022-10-16T06:21:07;101948.25;;;5.53;79.23
33153;BME280;19509;43.862;26.176;2022-10-16T06:23:33;101942.19;;;5.60;81.45
33153;BME280;19509;43.862;26.176;2022-10-16T06:26:13;101947.63;;;5.88;80.58
33153;BME280;19509;43.862;26.176;2022-10-16T06:28:39;101955.03;;;6.04;80.84
33153;BME280;19509;43.862;26.176;2022-10-16T06:31:07;101955.56;;;6.07;81.09
33153;BME280;19509;43.862;26.176;2022-10-16T06:33:34;101948.88;;;6.21;81.17
33153;BME280;19509;43.862;26.176;2022-10-16T06:36:05;101960.28;;;6.69;79.43
33153;BME280;19509;43.862;26.176;2022-10-16T06:38:31;101961.06;;;6.79;79.56
33153;BME280;19509;43.862;26.176;2022-10-16T06:40:57;101961.16;;;7.05;79.60
33153;BME280;19509;43.862;26.176;2022-10-16T06:43:23;101965.44;;;7.16;79.73
33153;BME280;19509;43.862;26.176;2022-10-16T06:45:53;101960.03;;;7.33;79.53
33153;BME280;19509;43.862;26.176;2022-10-16T06:48:19;101966.31;;;7.42;79.81
33153;BME280;19509;43.862;26.176;2022-10-16T06:51:10;101974.13;;;7.35;80.65
33153;BME280;19509;43.862;26.176;2022-10-16T06:53:39;101970.97;;;7.58;80.87
33153;BME280;19509;43.862;26.176;2022-10-16T06:56:13;101968.50;;;7.65;81.13
33153;BME280;19509;43.862;26.176;2022-10-16T06:58:39;101967.19;;;7.95;80.17
33153;BME280;19509;43.862;26.176;2022-10-16T07:01:05;101966.56;;;8.09;80.71
33153;BME280;19509;43.862;26.176;2022-10-16T07:03:31;101978.03;;;8.27;80.13
33153;BME280;19509;43.862;26.176;2022-10-16T07:06:01;101979.91;;;8.35;79.23
33153;BME280;19509;43.862;26.176;2022-10-16T07:08:26;101989.22;;;8.49;79.57
33153;BME280;19509;43.862;26.176;2022-10-16T07:11:09;101985.25;;;8.69;79.04
33153;BME280;19509;43.862;26.176;2022-10-16T07:13:38;101978.63;;;8.98;78.41
33153;BME280;19509;43.862;26.176;2022-10-16T07:16:12;101971.09;;;9.18;78.32
33153;BME280;19509;43.862;26.176;2022-10-16T07:18:38;101967.53;;;9.34;77.03
33153;BME280;19509;43.862;26.176;2022-10-16T07:21:10;101971.25;;;9.41;76.96
33153;BME280;19509;43.862;26.176;2022-10-16T07:23:36;101980.47;;;9.46;76.36
33153;BME280;19509;43.862;26.176;2022-10-16T07:26:02;101983.84;;;9.48;75.71
33153;BME280;19509;43.862;26.176;2022-10-16T07:28:28;101978.13;;;9.60;74.87
33153;BME280;19509;43.862;26.176;2022-10-16T07:30:54;101972.56;;;9.69;75.05
33153;BME280;19509;43.862;26.176;2022-10-16T07:33:20;101984.97;;;9.87;74.05
33153;BME280;19509;43.862;26.176;2022-10-16T07:35:52;101975.72;;;9.89;74.08
33153;BME280;19509;43.862;26.176;2022-10-16T07:38:21;101981.16;;;10.21;74.71
33153;BME280;19509;43.862;26.176;2022-10-16T07:40:47;101976.63;;;10.21;72.57
33153;BME280;19509;43.862;26.176;2022-10-16T07:43:14;101970.88;;;10.40;71.26
33153;BME280;19509;43.862;26.176;2022-10-16T07:45:49;101977.34;;;10.54;69.92
33153;BME280;19509;43.862;26.176;2022-10-16T07:48:16;101983.31;;;10.73;71.00
33153;BME280;19509;43.862;26.176;2022-10-16T07:50:42;101979.69;;;10.88;68.37
33153;BME280;19509;43.862;26.176;2022-10-16T07:53:07;101972.78;;;10.86;67.66
33153;BME280;19509;43.862;26.176;2022-10-16T07:55:33;101982.63;;;11.02;67.70
33153;BME280;19509;43.862;26.176;2022-10-16T07:57:58;101989.31;;;11.29;68.65
33153;BME280;19509;43.862;26.176;2022-10-16T08:00:24;101993.44;;;11.40;66.13
33153;BME280;19509;43.862;26.176;2022-10-16T08:02:50;101987.47;;;11.29;64.46
33153;BME280;19509;43.862;26.176;2022-10-16T08:05:15;101981.47;;;11.42;66.53
33153;BME280;19509;43.862;26.176;2022-10-16T08:07:41;101994.56;;;11.83;66.00
33153;BME280;19509;43.862;26.176;2022-10-16T08:10:09;101989.59;;;11.72;63.89
33153;BME280;19509;43.862;26.176;2022-10-16T08:12:35;101988.16;;;11.84;63.88
33153;BME280;19509;43.862;26.176;2022-10-16T08:15:01;101984.06;;;11.88;63.04
33153;BME280;19509;43.862;26.176;2022-10-16T08:17:26;101981.00;;;11.91;64.06
33153;BME280;19509;43.862;26.176;2022-10-16T08:19:52;101982.31;;;11.95;64.65
33153;BME280;19509;43.862;26.176;2022-10-16T08:22:17;101994.69;;;12.19;62.46
33153;BME280;19509;43.862;26.176;2022-10-16T08:24:42;101994.41;;;12.29;62.21
33153;BME280;19509;43.862;26.176;2022-10-16T08:27:08;101988.53;;;12.25;61.24
33153;BME280;19509;43.862;26.176;2022-10-16T08:29:34;101985.38;;;12.22;61.67
33153;BME280;19509;43.862;26.176;2022-10-16T08:31:59;101990.47;;;12.46;48.64
33153;BME280;19509;43.862;26.176;2022-10-16T08:34:25;101991.47;;;12.75;61.29
33153;BME280;19509;43.862;26.176;2022-10-16T08:36:53;101992.03;;;12.70;60.23
33153;BME280;19509;43.862;26.176;2022-10-16T08:39:19;101985.78;;;12.70;60.40
33153;BME280;19509;43.862;26.176;2022-10-16T08:50:24;101995.88;;;13.19;59.21
33153;BME280;19509;43.862;26.176;2022-10-16T08:52:52;102001.16;;;13.27;58.67
33153;BME280;19509;43.862;26.176;2022-10-16T08:55:43;101997.03;;;13.53;57.40
33153;BME280;19509;43.862;26.176;2022-10-16T08:58:18;102005.78;;;13.55;57.80
33153;BME280;19509;43.862;26.176;2022-10-16T09:00:50;102005.44;;;13.64;56.43
33153;BME280;19509;43.862;26.176;2022-10-16T09:08:44;101996.66;;;13.56;56.54
33153;BME280;19509;43.862;26.176;2022-10-16T09:21:26;101994.19;;;13.89;55.40
33153;BME280;19509;43.862;26.176;2022-10-16T09:23:58;101997.56;;;13.98;53.83
33153;BME280;19509;43.862;26.176;2022-10-16T09:26:25;101996.22;;;14.15;53.59
33153;BME280;19509;43.862;26.176;2022-10-16T09:28:52;101989.94;;;14.08;51.81
33153;BME280;19509;43.862;26.176;2022-10-16T09:31:20;101994.16;;;14.17;52.16
33153;BME280;19509;43.862;26.176;2022-10-16T09:33:59;101995.50;;;14.34;52.57
33153;BME280;19509;43.862;26.176;2022-10-16T09:36:27;101986.19;;;14.43;51.10
33153;BME280;19509;43.862;26.176;2022-10-16T09:39:05;101986.59;;;14.47;49.74
33153;BME280;19509;43.862;26.176;2022-10-16T09:41:34;101982.59;;;14.43;52.23
33153;BME280;19509;43.862;26.176;2022-10-16T09:44:02;101986.25;;;14.63;51.96
33153;BME280;19509;43.862;26.176;2022-10-16T09:46:34;101976.34;;;14.42;50.97
33153;BME280;19509;43.862;26.176;2022-10-16T09:49:05;101979.69;;;14.38;50.88
33153;BME280;19509;43.862;26.176;2022-10-16T09:51:44;101976.38;;;14.49;50.95
33153;BME280;19509;43.862;26.176;2022-10-16T09:54:16;101973.13;;;14.60;51.76
33153;BME280;19509;43.862;26.176;2022-10-16T09:56:41;101973.19;;;14.87;51.87
33153;BME280;19509;43.862;26.176;2022-10-16T09:59:18;101966.97;;;14.93;51.52
33153;BME280;19509;43.862;26.176;2022-10-16T10:01:46;101969.44;;;14.81;52.70
33153;BME280;19509;43.862;26.176;2022-10-16T10:04:13;101959.91;;;15.19;52.19
33153;BME280;19509;43.862;26.176;2022-10-16T10:06:47;101946.97;;;15.34;51.23
33153;BME280;19509;43.862;26.176;2022-10-16T10:09:17;101957.63;;;15.35;49.50
33153;BME280;19509;43.862;26.176;2022-10-16T10:11:47;101954.06;;;15.28;50.83
33153;BME280;19509;43.862;26.176;2022-10-16T10:19:29;101953.66;;;15.25;51.38
33153;BME280;19509;43.862;26.176;2022-10-16T10:21:55;101953.22;;;15.28;49.27
33153;BME280;19509;43.862;26.176;2022-10-16T10:24:20;101945.09;;;15.41;51.54
33153;BME280;19509;43.862;26.176;2022-10-16T10:27:10;101950.31;;;15.43;50.38
33153;BME280;19509;43.862;26.176;2022-10-16T10:30:08;101952.19;;;15.49;51.03
33153;BME280;19509;43.862;26.176;2022-10-16T10:35:51;101949.69;;;15.41;46.61
33153;BME280;19509;43.862;26.176;2022-10-16T10:38:56;101943.44;;;15.33;49.68
33153;BME280;19509;43.862;26.176;2022-10-16T10:44:22;101933.63;;;15.46;48.71
33153;BME280;19509;43.862;26.176;2022-10-16T10:46:55;101933.00;;;15.70;48.23
33153;BME280;19509;43.862;26.176;2022-10-16T10:49:52;101930.91;;;15.72;45.47
33153;BME280;19509;43.862;26.176;2022-10-16T10:55:22;101935.84;;;15.95;47.38
33153;BME280;19509;43.862;26.176;2022-10-16T10:58:15;101928.63;;;15.56;46.70
33153;BME280;19509;43.862;26.176;2022-10-16T11:01:01;101927.13;;;15.87;47.51
33153;BME280;19509;43.862;26.176;2022-10-16T11:06:08;101927.00;;;16.20;48.73
33153;BME280;19509;43.862;26.176;2022-10-16T11:08:39;101925.44;;;15.85;46.14
33153;BME280;19509;43.862;26.176;2022-10-16T11:11:22;101924.19;;;15.88;46.01
33153;BME280;19509;43.862;26.176;2022-10-16T11:13:59;101924.88;;;15.70;47.18
33153;BME280;19509;43.862;26.176;2022-10-16T11:16:31;101933.50;;;16.12;46.68
33153;BME280;19509;43.862;26.176;2022-10-16T11:19:18;101922.81;;;16.30;45.46
33153;BME280;19509;43.862;26.176;2022-10-16T11:22:12;101931.25;;;15.96;46.55
33153;BME280;19509;43.862;26.176;2022-10-16T11:27:41;101908.66;;;16.08;46.48
33153;BME280;19509;43.862;26.176;2022-10-16T11:30:16;101913.78;;;16.30;47.08
33153;BME280;19509;43.862;26.176;2022-10-16T11:33:20;101915.72;;;16.23;46.87
33153;BME280;19509;43.862;26.176;2022-10-16T11:35:53;101914.38;;;15.87;46.40
33153;BME280;19509;43.862;26.176;2022-10-16T11:38:41;101910.59;;;15.95;47.44
33153;BME280;19509;43.862;26.176;2022-10-16T11:49:40;101899.72;;;16.46;45.95
33153;BME280;19509;43.862;26.176;2022-10-16T11:55:32;101910.47;;;16.28;45.64
33153;BME280;19509;43.862;26.176;2022-10-16T11:58:04;101907.56;;;16.23;45.82
33153;BME280;19509;43.862;26.176;2022-10-16T12:00:58;101909.78;;;16.39;46.76
33153;BME280;19509;43.862;26.176;2022-10-16T12:03:43;101909.78;;;16.77;44.54
33153;BME280;19509;43.862;26.176;2022-10-16T12:06:20;101915.06;;;16.66;46.53
33153;BME280;19509;43.862;26.176;2022-10-16T12:08:50;101909.44;;;16.61;45.63
33153;BME280;19509;43.862;26.176;2022-10-16T12:16:57;101913.94;;;16.48;45.29
33153;BME280;19509;43.862;26.176;2022-10-16T12:19:26;101921.78;;;16.63;46.13
33153;BME280;19509;43.862;26.176;2022-10-16T12:21:56;101921.88;;;16.88;45.31
33153;BME280;19509;43.862;26.176;2022-10-16T12:24:39;101919.09;;;16.56;43.80
33153;BME280;19509;43.862;26.176;2022-10-16T12:27:30;101916.19;;;16.58;43.99
33153;BME280;19509;43.862;26.176;2022-10-16T12:29:58;101917.72;;;16.47;44.50
33153;BME280;19509;43.862;26.176;2022-10-16T12:32:31;101917.09;;;16.39;45.55
33153;BME280;19509;43.862;26.176;2022-10-16T12:34:59;101923.75;;;16.49;45.11
33153;BME280;19509;43.862;26.176;2022-10-16T12:37:27;101928.00;;;16.70;45.16
33153;BME280;19509;43.862;26.176;2022-10-16T12:39:55;101928.59;;;16.86;43.87
33153;BME280;19509;43.862;26.176;2022-10-16T12:44:54;101933.38;;;16.84;44.36
33153;BME280;19509;43.862;26.176;2022-10-16T12:47:49;101935.94;;;16.78;42.97
33153;BME280;19509;43.862;26.176;2022-10-16T12:52:59;101930.28;;;16.35;44.59
33153;BME280;19509;43.862;26.176;2022-10-16T12:55:26;101929.28;;;16.23;45.03
33153;BME280;19509;43.862;26.176;2022-10-16T13:00:53;101926.28;;;16.44;44.16
33153;BME280;19509;43.862;26.176;2022-10-16T13:06:22;101925.00;;;16.92;42.67
33153;BME280;19509;43.862;26.176;2022-10-16T13:26:00;101935.28;;;16.38;41.67
33153;BME280;19509;43.862;26.176;2022-10-16T13:28:31;101930.50;;;16.33;42.95
33153;BME280;19509;43.862;26.176;2022-10-16T13:30:59;101935.34;;;16.25;43.86
33153;BME280;19509;43.862;26.176;2022-10-16T13:33:42;101928.88;;;16.19;45.12
33153;BME280;19509;43.862;26.176;2022-10-16T13:36:22;101924.19;;;16.40;43.60
33153;BME280;19509;43.862;26.176;2022-10-16T13:38:48;101933.13;;;16.53;43.02
33153;BME280;19509;43.862;26.176;2022-10-16T13:41:16;101932.09;;;16.54;43.97
33153;BME280;19509;43.862;26.176;2022-10-16T13:43:45;101933.09;;;16.60;42.08
33153;BME280;19509;43.862;26.176;2022-10-16T13:46:16;101933.84;;;16.36;41.47
33153;BME280;19509;43.862;26.176;2022-10-16T13:48:42;101934.97;;;16.15;41.38
33153;BME280;19509;43.862;26.176;2022-10-16T13:51:14;101943.25;;;16.33;42.37
33153;BME280;19509;43.862;26.176;2022-10-16T13:53:41;101946.22;;;16.25;43.68
33153;BME280;19509;43.862;26.176;2022-10-16T13:56:11;101957.97;;;15.99;43.48
33153;BME280;19509;43.862;26.176;2022-10-16T13:58:37;101955.09;;;15.94;44.30
33153;BME280;19509;43.862;26.176;2022-10-16T14:01:13;101955.53;;;15.77;45.30
33153;BME280;19509;43.862;26.176;2022-10-16T14:03:41;101948.22;;;15.78;44.27
33153;BME280;19509;43.862;26.176;2022-10-16T14:06:15;101947.38;;;15.91;45.03
33153;BME280;19509;43.862;26.176;2022-10-16T14:08:44;101950.94;;;15.71;44.47
33153;BME280;19509;43.862;26.176;2022-10-16T14:11:11;101947.63;;;15.49;44.58
33153;BME280;19509;43.862;26.176;2022-10-16T14:13:39;101955.34;;;15.46;45.29
33153;BME280;19509;43.862;26.176;2022-10-16T14:16:17;101960.34;;;15.42;45.89
33153;BME280;19509;43.862;26.176;2022-10-16T14:18:46;101959.91;;;15.38;46.39
33153;BME280;19509;43.862;26.176;2022-10-16T14:21:16;101956.78;;;15.35;45.44
33153;BME280;19509;43.862;26.176;2022-10-16T14:23:42;101959.72;;;15.27;45.82
33153;BME280;19509;43.862;26.176;2022-10-16T14:28:34;101959.50;;;15.35;46.75
33153;BME280;19509;43.862;26.176;2022-10-16T14:31:01;101969.50;;;15.34;45.60
33153;BME280;19509;43.862;26.176;2022-10-16T14:36:11;101957.19;;;15.12;44.99
33153;BME280;19509;43.862;26.176;2022-10-16T14:38:39;101964.06;;;15.21;45.22
33153;BME280;19509;43.862;26.176;2022-10-16T14:41:06;101964.50;;;15.05;45.40